sensor_id;sensor_type;location;lat;lon;timestamp;P1;durP1;ratioP1;P2;durP2;ratioP2
72261;SDS011;60173;52.112;8.648;2022-12-05T00:00:54;65.07;;;28.83;;
72261;SDS011;60173;52.112;8.648;2022-12-05T00:03:20;67.95;;;29.50;;
72261;SDS011;60173;52.112;8.648;2022-12-05T00:05:48;68.28;;;27.98;;
72261;SDS011;60173;52.112;8.648;2022-12-05T00:08:14;68.32;;;29.00;;
72261;SDS011;60173;52.112;8.648;2022-12-05T00:10:41;67.35;;;29.15;;
72261;SDS011;60173;52.112;8.648;2022-12-05T00:13:07;66.78;;;28.98;;
72261;SDS011;60173;52.112;8.648;2022-12-05T00:15:35;66.88;;;29.48;;
72261;SDS011;60173;52.112;8.648;2022-12-05T00:18:06;69.05;;;30.13;;
72261;SDS011;60173;52.112;8.648;2022-12-05T00:20:32;64.45;;;27.55;;
72261;SDS011;60173;52.112;8.648;2022-12-05T00:22:59;70.47;;;30.17;;
72261;SDS011;60173;52.112;8.648;2022-12-05T00:25:25;68.05;;;28.33;;
72261;SDS011;60173;52.112;8.648;2022-12-05T00:27:51;69.93;;;29.10;;
72261;SDS011;60173;52.112;8.648;2022-12-05T00:30:18;64.22;;;27.95;;
72261;SDS011;60173;52.112;8.648;2022-12-05T00:32:44;64.50;;;28.70;;
72261;SDS011;60173;52.112;8.648;2022-12-05T00:35:11;62.60;;;28.00;;
72261;SDS011;60173;52.112;8.648;2022-12-05T00:37:37;66.88;;;29.20;;
72261;SDS011;60173;52.112;8.648;2022-12-05T00:40:03;65.60;;;29.05;;
72261;SDS011;60173;52.112;8.648;2022-12-05T00:42:30;66.53;;;28.35;;
72261;SDS011;60173;52.112;8.648;2022-12-05T00:44:57;65.55;;;29.10;;
72261;SDS011;60173;52.112;8.648;2022-12-05T00:47:23;67.40;;;28.73;;
72261;SDS011;60173;52.112;8.648;2022-12-05T00:49:49;58.35;;;27.23;;
72261;SDS011;60173;52.112;8.648;2022-12-05T00:52:16;63.17;;;27.88;;
72261;SDS011;60173;52.112;8.648;2022-12-05T00:54:42;61.03;;;27.63;;
72261;SDS011;60173;52.112;8.648;2022-12-05T00:57:08;62.75;;;28.10;;
72261;SDS011;60173;52.112;8.648;2022-12-05T00:59:35;55.25;;;26.08;;
72261;SDS011;60173;52.112;8.648;2022-12-05T01:02:01;66.82;;;29.08;;
72261;SDS011;60173;52.112;8.648;2022-12-05T01:04:28;66.25;;;28.38;;
72261;SDS011;60173;52.112;8.648;2022-12-05T01:06:54;64.70;;;28.65;;
72261;SDS011;60173;52.112;8.648;2022-12-05T01:09:22;61.40;;;26.75;;
72261;SDS011;60173;52.112;8.648;2022-12-05T01:11:49;65.43;;;28.17;;
72261;SDS011;60173;52.112;8.648;2022-12-05T01:14:16;71.60;;;29.10;;
72261;SDS011;60173;52.112;8.648;2022-12-05T01:16:45;65.35;;;27.10;;
72261;SDS011;60173;52.112;8.648;2022-12-05T01:19:14;63.55;;;27.95;;
72261;SDS011;60173;52.112;8.648;2022-12-05T01:21:42;65.68;;;27.98;;
72261;SDS011;60173;52.112;8.648;2022-12-05T01:24:10;64.03;;;28.98;;
72261;SDS011;60173;52.112;8.648;2022-12-05T01:26:37;71.05;;;29.17;;
72261;SDS011;60173;52.112;8.648;2022-12-05T01:29:04;65.32;;;27.85;;
72261;SDS011;60173;52.112;8.648;2022-12-05T01:31:32;63.97;;;27.65;;
72261;SDS011;60173;52.112;8.648;2022-12-05T01:34:01;59.38;;;26.80;;
72261;SDS011;60173;52.112;8.648;2022-12-05T01:36:30;67.57;;;29.50;;
72261;SDS011;60173;52.112;8.648;2022-12-05T01:38:57;65.22;;;28.58;;
72261;SDS011;60173;52.112;8.648;2022-12-05T01:41:43;68.25;;;28.73;;
72261;SDS011;60173;52.112;8.648;2022-12-05T01:46:39;64.63;;;27.20;;
72261;SDS011;60173;52.112;8.648;2022-12-05T01:51:46;59.35;;;26.75;;
72261;SDS011;60173;52.112;8.648;2022-12-05T01:54:21;59.45;;;25.75;;
72261;SDS011;60173;52.112;8.648;2022-12-05T01:56:49;56.65;;;24.65;;
72261;SDS011;60173;52.112;8.648;2022-12-05T01:59:28;59.63;;;26.17;;
72261;SDS011;60173;52.112;8.648;2022-12-05T02:01:58;57.58;;;26.45;;
72261;SDS011;60173;52.112;8.648;2022-12-05T02:04:24;55.47;;;25.85;;
72261;SDS011;60173;52.112;8.648;2022-12-05T02:06:51;52.20;;;26.10;;
72261;SDS011;60173;52.112;8.648;2022-12-05T02:09:17;59.00;;;25.88;;
72261;SDS011;60173;52.112;8.648;2022-12-05T02:11:49;58.30;;;26.52;;
72261;SDS011;60173;52.112;8.648;2022-12-05T02:14:22;60.17;;;26.08;;
72261;SDS011;60173;52.112;8.648;2022-12-05T02:17:07;52.40;;;23.73;;
72261;SDS011;60173;52.112;8.648;2022-12-05T02:26:07;53.90;;;23.98;;
72261;SDS011;60173;52.112;8.648;2022-12-05T02:31:52;53.38;;;23.30;;
72261;SDS011;60173;52.112;8.648;2022-12-05T02:37:29;52.05;;;22.92;;
72261;SDS011;60173;52.112;8.648;2022-12-05T02:40:14;52.63;;;23.15;;
72261;SDS011;60173;52.112;8.648;2022-12-05T02:42:45;47.03;;;22.42;;
72261;SDS011;60173;52.112;8.648;2022-12-05T02:45:24;50.28;;;22.45;;
72261;SDS011;60173;52.112;8.648;2022-12-05T02:47:54;49.58;;;22.77;;
72261;SDS011;60173;52.112;8.648;2022-12-05T02:50:21;48.67;;;22.17;;
72261;SDS011;60173;52.112;8.648;2022-12-05T02:52:53;46.90;;;22.58;;
72261;SDS011;60173;52.112;8.648;2022-12-05T02:55:23;46.88;;;22.15;;
72261;SDS011;60173;52.112;8.648;2022-12-05T02:57:54;46.80;;;22.25;;
72261;SDS011;60173;52.112;8.648;2022-12-05T03:00:25;51.72;;;22.85;;
72261;SDS011;60173;52.112;8.648;2022-12-05T03:02:52;47.13;;;22.15;;
72261;SDS011;60173;52.112;8.648;2022-12-05T03:05:31;46.78;;;22.38;;
72261;SDS011;60173;52.112;8.648;2022-12-05T03:08:07;51.78;;;23.40;;
72261;SDS011;60173;52.112;8.648;2022-12-05T03:10:40;49.07;;;22.47;;
72261;SDS011;60173;52.112;8.648;2022-12-05T03:13:13;49.63;;;23.20;;
72261;SDS011;60173;52.112;8.648;2022-12-05T03:15:47;49.53;;;22.77;;
72261;SDS011;60173;52.112;8.648;2022-12-05T03:18:18;45.45;;;22.35;;
72261;SDS011;60173;52.112;8.648;2022-12-05T03:20:58;46.78;;;22.52;;
72261;SDS011;60173;52.112;8.648;2022-12-05T03:23:31;57.85;;;23.98;;
72261;SDS011;60173;52.112;8.648;2022-12-05T03:26:09;48.58;;;22.42;;
72261;SDS011;60173;52.112;8.648;2022-12-05T03:31:48;46.55;;;21.75;;
72261;SDS011;60173;52.112;8.648;2022-12-05T03:40:07;51.42;;;23.95;;
72261;SDS011;60173;52.112;8.648;2022-12-05T03:42:43;53.20;;;22.98;;
72261;SDS011;60173;52.112;8.648;2022-12-05T03:45:19;44.30;;;23.38;;
72261;SDS011;60173;52.112;8.648;2022-12-05T03:48:04;54.47;;;24.25;;
72261;SDS011;60173;52.112;8.648;2022-12-05T03:50:39;52.65;;;24.35;;
72261;SDS011;60173;52.112;8.648;2022-12-05T03:53:18;49.22;;;23.98;;
72261;SDS011;60173;52.112;8.648;2022-12-05T03:55:53;46.70;;;22.65;;
72261;SDS011;60173;52.112;8.648;2022-12-05T03:58:26;51.97;;;23.40;;
72261;SDS011;60173;52.112;8.648;2022-12-05T04:00:58;52.33;;;23.27;;
72261;SDS011;60173;52.112;8.648;2022-12-05T04:03:38;50.38;;;22.15;;
72261;SDS011;60173;52.112;8.648;2022-12-05T04:06:14;48.08;;;23.38;;
72261;SDS011;60173;52.112;8.648;2022-12-05T04:08:46;45.63;;;21.98;;
72261;SDS011;60173;52.112;8.648;2022-12-05T04:11:18;45.03;;;22.15;;
72261;SDS011;60173;52.112;8.648;2022-12-05T04:13:49;46.83;;;22.15;;
72261;SDS011;60173;52.112;8.648;2022-12-05T04:16:21;51.72;;;23.05;;
72261;SDS011;60173;52.112;8.648;2022-12-05T04:18:53;51.70;;;23.15;;
72261;SDS011;60173;52.112;8.648;2022-12-05T04:21:26;52.63;;;23.48;;
72261;SDS011;60173;52.112;8.648;2022-12-05T04:23:58;51.70;;;23.27;;
72261;SDS011;60173;52.112;8.648;2022-12-05T04:26:26;54.38;;;24.92;;
72261;SDS011;60173;52.112;8.648;2022-12-05T04:28:57;56.50;;;25.10;;
72261;SDS011;60173;52.112;8.648;2022-12-05T04:31:33;53.50;;;24.08;;
72261;SDS011;60173;52.112;8.648;2022-12-05T04:34:06;38.65;;;19.02;;
72261;SDS011;60173;52.112;8.648;2022-12-05T04:36:39;51.10;;;24.92;;
72261;SDS011;60173;52.112;8.648;2022-12-05T04:39:23;54.78;;;24.95;;
72261;SDS011;60173;52.112;8.648;2022-12-05T04:42:00;56.30;;;25.60;;
72261;SDS011;60173;52.112;8.648;2022-12-05T04:44:32;54.65;;;25.20;;
72261;SDS011;60173;52.112;8.648;2022-12-05T04:47:02;52.50;;;24.73;;
72261;SDS011;60173;52.112;8.648;2022-12-05T04:49:31;52.78;;;25.63;;
72261;SDS011;60173;52.112;8.648;2022-12-05T04:52:00;54.58;;;25.60;;
72261;SDS011;60173;52.112;8.648;2022-12-05T04:54:31;53.13;;;23.80;;
72261;SDS011;60173;52.112;8.648;2022-12-05T04:57:25;56.88;;;26.92;;
72261;SDS011;60173;52.112;8.648;2022-12-05T04:59:52;50.42;;;24.20;;
72261;SDS011;60173;52.112;8.648;2022-12-05T05:02:20;50.72;;;24.67;;
72261;SDS011;60173;52.112;8.648;2022-12-05T05:07:22;56.67;;;25.58;;
72261;SDS011;60173;52.112;8.648;2022-12-05T05:09:49;51.70;;;24.55;;
72261;SDS011;60173;52.112;8.648;2022-12-05T05:12:15;54.33;;;25.98;;
72261;SDS011;60173;52.112;8.648;2022-12-05T05:14:44;50.30;;;25.42;;
72261;SDS011;60173;52.112;8.648;2022-12-05T05:17:11;56.63;;;25.45;;
72261;SDS011;60173;52.112;8.648;2022-12-05T05:19:37;52.45;;;25.15;;
72261;SDS011;60173;52.112;8.648;2022-12-05T05:22:03;49.30;;;23.30;;
72261;SDS011;60173;52.112;8.648;2022-12-05T05:24:30;48.80;;;24.75;;
72261;SDS011;60173;52.112;8.648;2022-12-05T05:26:56;50.78;;;24.23;;
72261;SDS011;60173;52.112;8.648;2022-12-05T05:29:23;57.75;;;26.17;;
72261;SDS011;60173;52.112;8.648;2022-12-05T05:31:49;50.42;;;24.60;;
72261;SDS011;60173;52.112;8.648;2022-12-05T05:34:15;54.28;;;26.13;;
72261;SDS011;60173;52.112;8.648;2022-12-05T05:36:42;49.55;;;23.50;;
72261;SDS011;60173;52.112;8.648;2022-12-05T05:39:10;52.05;;;24.65;;
72261;SDS011;60173;52.112;8.648;2022-12-05T05:41:38;47.35;;;23.48;;
72261;SDS011;60173;52.112;8.648;2022-12-05T05:44:04;50.65;;;24.25;;
72261;SDS011;60173;52.112;8.648;2022-12-05T05:46:32;46.80;;;23.40;;
72261;SDS011;60173;52.112;8.648;2022-12-05T05:48:59;45.13;;;23.20;;
72261;SDS011;60173;52.112;8.648;2022-12-05T05:51:26;47.53;;;22.30;;
72261;SDS011;60173;52.112;8.648;2022-12-05T05:53:53;52.92;;;23.77;;
72261;SDS011;60173;52.112;8.648;2022-12-05T05:56:19;44.05;;;22.05;;
72261;SDS011;60173;52.112;8.648;2022-12-05T05:58:47;47.17;;;22.42;;
72261;SDS011;60173;52.112;8.648;2022-12-05T06:01:20;46.75;;;23.08;;
72261;SDS011;60173;52.112;8.648;2022-12-05T06:03:46;42.15;;;21.27;;
72261;SDS011;60173;52.112;8.648;2022-12-05T06:06:14;41.88;;;20.73;;
72261;SDS011;60173;52.112;8.648;2022-12-05T06:08:41;45.50;;;22.00;;
72261;SDS011;60173;52.112;8.648;2022-12-05T06:11:19;42.33;;;20.10;;
72261;SDS011;60173;52.112;8.648;2022-12-05T06:13:52;41.10;;;20.33;;
72261;SDS011;60173;52.112;8.648;2022-12-05T06:16:19;41.00;;;20.35;;
72261;SDS011;60173;52.112;8.648;2022-12-05T06:18:46;45.65;;;21.40;;
72261;SDS011;60173;52.112;8.648;2022-12-05T06:21:13;43.28;;;20.70;;
72261;SDS011;60173;52.112;8.648;2022-12-05T06:23:41;39.25;;;18.90;;
72261;SDS011;60173;52.112;8.648;2022-12-05T06:26:12;45.38;;;21.33;;
72261;SDS011;60173;52.112;8.648;2022-12-05T06:28:41;38.05;;;19.30;;
72261;SDS011;60173;52.112;8.648;2022-12-05T06:31:09;37.97;;;20.25;;
72261;SDS011;60173;52.112;8.648;2022-12-05T06:33:37;41.78;;;20.75;;
72261;SDS011;60173;52.112;8.648;2022-12-05T06:36:05;44.88;;;21.15;;
72261;SDS011;60173;52.112;8.648;2022-12-05T06:38:33;39.38;;;20.70;;
72261;SDS011;60173;52.112;8.648;2022-12-05T06:41:07;40.58;;;19.63;;
72261;SDS011;60173;52.112;8.648;2022-12-05T06:43:35;38.78;;;19.90;;
72261;SDS011;60173;52.112;8.648;2022-12-05T06:46:08;37.63;;;19.60;;
72261;SDS011;60173;52.112;8.648;2022-12-05T06:48:36;34.85;;;18.63;;
72261;SDS011;60173;52.112;8.648;2022-12-05T06:51:03;35.35;;;18.60;;
72261;SDS011;60173;52.112;8.648;2022-12-05T06:53:29;34.20;;;18.52;;
72261;SDS011;60173;52.112;8.648;2022-12-05T06:55:56;36.47;;;18.90;;
72261;SDS011;60173;52.112;8.648;2022-12-05T06:58:25;33.95;;;18.45;;
72261;SDS011;60173;52.112;8.648;2022-12-05T07:00:52;36.35;;;18.35;;
72261;SDS011;60173;52.112;8.648;2022-12-05T07:03:18;32.45;;;17.58;;
72261;SDS011;60173;52.112;8.648;2022-12-05T07:05:45;36.78;;;18.63;;
72261;SDS011;60173;52.112;8.648;2022-12-05T07:08:11;31.20;;;17.17;;
72261;SDS011;60173;52.112;8.648;2022-12-05T07:10:37;38.45;;;18.20;;
72261;SDS011;60173;52.112;8.648;2022-12-05T07:13:04;32.85;;;17.60;;
72261;SDS011;60173;52.112;8.648;2022-12-05T07:15:30;37.17;;;19.50;;
72261;SDS011;60173;52.112;8.648;2022-12-05T07:17:56;37.05;;;17.08;;
72261;SDS011;60173;52.112;8.648;2022-12-05T07:20:23;36.25;;;18.27;;
72261;SDS011;60173;52.112;8.648;2022-12-05T07:22:49;33.30;;;18.38;;
72261;SDS011;60173;52.112;8.648;2022-12-05T07:25:15;33.67;;;17.92;;
72261;SDS011;60173;52.112;8.648;2022-12-05T07:27:41;34.28;;;17.40;;
72261;SDS011;60173;52.112;8.648;2022-12-05T07:30:08;35.80;;;18.20;;
72261;SDS011;60173;52.112;8.648;2022-12-05T07:32:34;34.78;;;18.10;;
72261;SDS011;60173;52.112;8.648;2022-12-05T07:35:01;33.95;;;19.25;;
72261;SDS011;60173;52.112;8.648;2022-12-05T07:37:28;31.52;;;16.85;;
72261;SDS011;60173;52.112;8.648;2022-12-05T07:39:54;35.58;;;18.38;;
72261;SDS011;60173;52.112;8.648;2022-12-05T07:42:21;33.40;;;18.27;;
72261;SDS011;60173;52.112;8.648;2022-12-05T07:44:47;33.33;;;17.52;;
72261;SDS011;60173;52.112;8.648;2022-12-05T07:47:14;36.35;;;19.48;;
72261;SDS011;60173;52.112;8.648;2022-12-05T07:49:40;32.35;;;17.90;;
72261;SDS011;60173;52.112;8.648;2022-12-05T07:52:06;31.77;;;17.92;;
72261;SDS011;60173;52.112;8.648;2022-12-05T07:54:33;29.63;;;16.35;;
72261;SDS011;60173;52.112;8.648;2022-12-05T07:56:59;36.58;;;20.25;;
72261;SDS011;60173;52.112;8.648;2022-12-05T07:59:25;35.50;;;18.85;;
72261;SDS011;60173;52.112;8.648;2022-12-05T08:01:52;32.63;;;18.27;;
72261;SDS011;60173;52.112;8.648;2022-12-05T08:04:18;37.97;;;19.52;;
72261;SDS011;60173;52.112;8.648;2022-12-05T08:06:45;34.60;;;19.33;;
72261;SDS011;60173;52.112;8.648;2022-12-05T08:09:11;29.83;;;16.65;;
72261;SDS011;60173;52.112;8.648;2022-12-05T08:11:38;27.67;;;15.25;;
72261;SDS011;60173;52.112;8.648;2022-12-05T08:14:05;29.05;;;15.38;;
72261;SDS011;60173;52.112;8.648;2022-12-05T08:16:32;27.27;;;16.23;;
72261;SDS011;60173;52.112;8.648;2022-12-05T08:19:09;29.27;;;16.38;;
72261;SDS011;60173;52.112;8.648;2022-12-05T08:21:37;28.75;;;16.50;;
72261;SDS011;60173;52.112;8.648;2022-12-05T08:24:04;29.73;;;17.20;;
72261;SDS011;60173;52.112;8.648;2022-12-05T08:26:32;29.42;;;15.65;;
72261;SDS011;60173;52.112;8.648;2022-12-05T08:29:02;27.65;;;16.08;;
72261;SDS011;60173;52.112;8.648;2022-12-05T08:31:31;32.28;;;17.40;;
72261;SDS011;60173;52.112;8.648;2022-12-05T08:33:59;36.13;;;18.27;;
72261;SDS011;60173;52.112;8.648;2022-12-05T08:36:27;33.15;;;18.40;;
72261;SDS011;60173;52.112;8.648;2022-12-05T08:38:55;33.53;;;16.48;;
72261;SDS011;60173;52.112;8.648;2022-12-05T08:41:22;29.90;;;16.15;;
72261;SDS011;60173;52.112;8.648;2022-12-05T08:43:48;35.05;;;19.67;;
72261;SDS011;60173;52.112;8.648;2022-12-05T08:46:15;30.63;;;17.10;;
72261;SDS011;60173;52.112;8.648;2022-12-05T08:48:41;29.95;;;16.48;;
72261;SDS011;60173;52.112;8.648;2022-12-05T08:51:08;33.08;;;18.02;;
72261;SDS011;60173;52.112;8.648;2022-12-05T08:53:36;30.55;;;17.20;;
72261;SDS011;60173;52.112;8.648;2022-12-05T08:56:09;29.45;;;16.67;;
72261;SDS011;60173;52.112;8.648;2022-12-05T08:58:37;29.13;;;15.88;;
72261;SDS011;60173;52.112;8.648;2022-12-05T09:03:31;32.95;;;18.77;;
72261;SDS011;60173;52.112;8.648;2022-12-05T09:06:05;31.70;;;18.55;;
72261;SDS011;60173;52.112;8.648;2022-12-05T09:08:31;29.85;;;18.05;;
72261;SDS011;60173;52.112;8.648;2022-12-05T09:10:58;33.15;;;18.70;;
72261;SDS011;60173;52.112;8.648;2022-12-05T09:13:24;35.67;;;22.55;;
72261;SDS011;60173;52.112;8.648;2022-12-05T09:15:50;36.13;;;21.10;;
72261;SDS011;60173;52.112;8.648;2022-12-05T09:18:17;30.80;;;17.02;;
72261;SDS011;60173;52.112;8.648;2022-12-05T09:20:43;29.73;;;15.82;;
72261;SDS011;60173;52.112;8.648;2022-12-05T09:23:09;28.38;;;17.13;;
72261;SDS011;60173;52.112;8.648;2022-12-05T09:25:41;31.38;;;16.55;;
72261;SDS011;60173;52.112;8.648;2022-12-05T09:28:07;27.30;;;15.40;;
72261;SDS011;60173;52.112;8.648;2022-12-05T09:30:33;29.90;;;17.42;;
72261;SDS011;60173;52.112;8.648;2022-12-05T09:33:00;31.02;;;16.08;;
72261;SDS011;60173;52.112;8.648;2022-12-05T09:35:26;27.25;;;15.75;;
72261;SDS011;60173;52.112;8.648;2022-12-05T09:37:52;27.27;;;16.15;;
72261;SDS011;60173;52.112;8.648;2022-12-05T09:40:19;32.65;;;17.77;;
72261;SDS011;60173;52.112;8.648;2022-12-05T09:42:54;30.35;;;17.25;;
72261;SDS011;60173;52.112;8.648;2022-12-05T09:45:29;31.08;;;17.73;;
72261;SDS011;60173;52.112;8.648;2022-12-05T09:50:41;29.98;;;17.58;;
72261;SDS011;60173;52.112;8.648;2022-12-05T10:01:22;36.83;;;19.98;;
72261;SDS011;60173;52.112;8.648;2022-12-05T10:17:36;32.92;;;19.80;;
72261;SDS011;60173;52.112;8.648;2022-12-05T10:20:08;37.83;;;19.90;;
72261;SDS011;60173;52.112;8.648;2022-12-05T10:22:39;34.75;;;18.88;;
72261;SDS011;60173;52.112;8.648;2022-12-05T10:25:11;40.42;;;21.30;;
72261;SDS011;60173;52.112;8.648;2022-12-05T10:27:41;40.53;;;21.98;;
72261;SDS011;60173;52.112;8.648;2022-12-05T10:30:13;39.38;;;21.35;;
72261;SDS011;60173;52.112;8.648;2022-12-05T10:32:49;36.45;;;20.60;;
72261;SDS011;60173;52.112;8.648;2022-12-05T10:38:16;28.77;;;17.40;;
72261;SDS011;60173;52.112;8.648;2022-12-05T10:40:49;22.47;;;13.50;;
72261;SDS011;60173;52.112;8.648;2022-12-05T10:43:25;23.80;;;14.93;;
72261;SDS011;60173;52.112;8.648;2022-12-05T10:45:53;29.48;;;15.65;;
72261;SDS011;60173;52.112;8.648;2022-12-05T10:48:20;27.23;;;15.77;;
72261;SDS011;60173;52.112;8.648;2022-12-05T10:50:49;26.00;;;15.80;;
72261;SDS011;60173;52.112;8.648;2022-12-05T10:53:22;26.90;;;14.68;;
72261;SDS011;60173;52.112;8.648;2022-12-05T10:55:50;28.58;;;15.52;;
72261;SDS011;60173;52.112;8.648;2022-12-05T10:58:37;23.58;;;15.38;;
72261;SDS011;60173;52.112;8.648;2022-12-05T11:01:07;22.58;;;14.52;;
72261;SDS011;60173;52.112;8.648;2022-12-05T11:03:39;22.42;;;13.55;;
72261;SDS011;60173;52.112;8.648;2022-12-05T11:08:51;26.20;;;15.07;;
72261;SDS011;60173;52.112;8.648;2022-12-05T11:11:30;25.40;;;15.80;;
72261;SDS011;60173;52.112;8.648;2022-12-05T11:14:02;24.58;;;14.95;;
72261;SDS011;60173;52.112;8.648;2022-12-05T11:19:41;23.40;;;14.20;;
72261;SDS011;60173;52.112;8.648;2022-12-05T11:21:48;25.33;;;15.30;;
72261;SDS011;60173;52.112;8.648;2022-12-05T11:24:34;29.88;;;17.67;;
72261;SDS011;60173;52.112;8.648;2022-12-05T11:29:41;22.58;;;13.68;;
72261;SDS011;60173;52.112;8.648;2022-12-05T11:32:18;21.20;;;13.40;;
72261;SDS011;60173;52.112;8.648;2022-12-05T11:35:08;22.55;;;13.60;;
72261;SDS011;60173;52.112;8.648;2022-12-05T11:40:19;23.30;;;14.55;;
72261;SDS011;60173;52.112;8.648;2022-12-05T11:48:55;34.45;;;22.95;;
72261;SDS011;60173;52.112;8.648;2022-12-05T11:51:47;38.88;;;25.88;;
72261;SDS011;60173;52.112;8.648;2022-12-05T12:00:02;32.65;;;19.80;;
72261;SDS011;60173;52.112;8.648;2022-12-05T12:02:47;36.08;;;23.13;;
72261;SDS011;60173;52.112;8.648;2022-12-05T12:08:26;28.23;;;19.85;;
72261;SDS011;60173;52.112;8.648;2022-12-05T12:14:12;30.88;;;19.05;;
72261;SDS011;60173;52.112;8.648;2022-12-05T12:17:33;29.73;;;18.20;;
72261;SDS011;60173;52.112;8.648;2022-12-05T12:25:32;30.15;;;20.25;;
72261;SDS011;60173;52.112;8.648;2022-12-05T12:31:22;31.35;;;20.05;;
72261;SDS011;60173;52.112;8.648;2022-12-05T12:34:22;29.10;;;19.20;;
72261;SDS011;60173;52.112;8.648;2022-12-05T12:50:13;26.83;;;18.23;;
72261;SDS011;60173;52.112;8.648;2022-12-05T12:52:47;32.22;;;19.95;;
72261;SDS011;60173;52.112;8.648;2022-12-05T12:55:28;31.10;;;18.67;;
72261;SDS011;60173;52.112;8.648;2022-12-05T12:58:12;31.67;;;18.88;;
72261;SDS011;60173;52.112;8.648;2022-12-05T13:01:10;32.97;;;19.00;;
72261;SDS011;60173;52.112;8.648;2022-12-05T13:06:28;25.00;;;16.70;;
72261;SDS011;60173;52.112;8.648;2022-12-05T13:09:12;33.47;;;19.98;;
72261;SDS011;60173;52.112;8.648;2022-12-05T13:11:45;26.08;;;17.23;;
72261;SDS011;60173;52.112;8.648;2022-12-05T13:14:14;28.15;;;19.23;;
72261;SDS011;60173;52.112;8.648;2022-12-05T13:16:43;27.02;;;17.95;;
72261;SDS011;60173;52.112;8.648;2022-12-05T13:21:57;34.13;;;22.00;;
72261;SDS011;60173;52.112;8.648;2022-12-05T13:24:25;37.88;;;23.88;;
72261;SDS011;60173;52.112;8.648;2022-12-05T13:26:53;32.78;;;22.05;;
72261;SDS011;60173;52.112;8.648;2022-12-05T13:29:28;34.97;;;22.25;;
72261;SDS011;60173;52.112;8.648;2022-12-05T13:32:22;29.70;;;18.67;;
72261;SDS011;60173;52.112;8.648;2022-12-05T13:34:58;29.58;;;17.80;;
72261;SDS011;60173;52.112;8.648;2022-12-05T13:37:30;28.92;;;18.65;;
72261;SDS011;60173;52.112;8.648;2022-12-05T13:39:57;31.13;;;19.02;;
72261;SDS011;60173;52.112;8.648;2022-12-05T13:42:25;26.58;;;17.13;;
72261;SDS011;60173;52.112;8.648;2022-12-05T13:44:57;32.15;;;19.98;;
72261;SDS011;60173;52.112;8.648;2022-12-05T13:50:19;32.42;;;19.95;;
72261;SDS011;60173;52.112;8.648;2022-12-05T13:53:18;33.38;;;21.30;;
72261;SDS011;60173;52.112;8.648;2022-12-05T13:55:54;29.85;;;21.20;;
72261;SDS011;60173;52.112;8.648;2022-12-05T14:00:49;28.23;;;19.33;;
72261;SDS011;60173;52.112;8.648;2022-12-05T14:03:52;26.80;;;18.30;;
72261;SDS011;60173;52.112;8.648;2022-12-05T14:06:03;29.63;;;20.10;;
72261;SDS011;60173;52.112;8.648;2022-12-05T14:15:51;27.15;;;18.00;;
72261;SDS011;60173;52.112;8.648;2022-12-05T14:21:02;31.38;;;19.65;;
72261;SDS011;60173;52.112;8.648;2022-12-05T14:26:33;28.95;;;18.15;;
72261;SDS011;60173;52.112;8.648;2022-12-05T14:32:02;25.45;;;16.67;;
72261;SDS011;60173;52.112;8.648;2022-12-05T14:34:51;28.23;;;17.67;;
72261;SDS011;60173;52.112;8.648;2022-12-05T14:37:26;27.05;;;16.92;;
72261;SDS011;60173;52.112;8.648;2022-12-05T14:39:56;27.58;;;17.30;;
72261;SDS011;60173;52.112;8.648;2022-12-05T14:48:05;25.25;;;16.63;;
72261;SDS011;60173;52.112;8.648;2022-12-05T14:50:52;28.35;;;17.00;;
72261;SDS011;60173;52.112;8.648;2022-12-05T14:55:51;26.08;;;16.15;;
72261;SDS011;60173;52.112;8.648;2022-12-05T14:59:12;24.48;;;15.82;;
72261;SDS011;60173;52.112;8.648;2022-12-05T15:01:32;27.98;;;16.05;;
72261;SDS011;60173;52.112;8.648;2022-12-05T15:20:51;29.70;;;17.42;;
72261;SDS011;60173;52.112;8.648;2022-12-05T15:31:49;27.60;;;16.52;;
72261;SDS011;60173;52.112;8.648;2022-12-05T15:37:10;28.42;;;17.35;;
72261;SDS011;60173;52.112;8.648;2022-12-05T15:39:51;29.60;;;17.58;;
72261;SDS011;60173;52.112;8.648;2022-12-05T15:42:30;31.30;;;19.38;;
72261;SDS011;60173;52.112;8.648;2022-12-05T15:47:39;31.30;;;18.95;;
72261;SDS011;60173;52.112;8.648;2022-12-05T15:50:12;30.55;;;18.88;;
72261;SDS011;60173;52.112;8.648;2022-12-05T15:52:44;32.20;;;19.40;;
72261;SDS011;60173;52.112;8.648;2022-12-05T15:55:17;37.45;;;21.00;;
72261;SDS011;60173;52.112;8.648;2022-12-05T15:57:53;33.55;;;20.67;;
72261;SDS011;60173;52.112;8.648;2022-12-05T16:00:36;30.98;;;19.33;;
72261;SDS011;60173;52.112;8.648;2022-12-05T16:03:16;34.70;;;19.80;;
72261;SDS011;60173;52.112;8.648;2022-12-05T16:05:51;31.83;;;19.35;;
72261;SDS011;60173;52.112;8.648;2022-12-05T16:08:26;28.08;;;17.90;;
72261;SDS011;60173;52.112;8.648;2022-12-05T16:10:53;28.50;;;17.80;;
72261;SDS011;60173;52.112;8.648;2022-12-05T16:13:19;33.97;;;18.55;;
72261;SDS011;60173;52.112;8.648;2022-12-05T16:15:49;32.05;;;17.95;;
72261;SDS011;60173;52.112;8.648;2022-12-05T16:18:29;31.98;;;18.95;;
72261;SDS011;60173;52.112;8.648;2022-12-05T16:20:56;32.13;;;17.48;;
72261;SDS011;60173;52.112;8.648;2022-12-05T16:23:27;26.48;;;17.65;;
72261;SDS011;60173;52.112;8.648;2022-12-05T16:28:40;32.10;;;17.58;;
72261;SDS011;60173;52.112;8.648;2022-12-05T16:31:06;28.67;;;17.05;;
72261;SDS011;60173;52.112;8.648;2022-12-05T16:33:33;27.90;;;16.58;;
72261;SDS011;60173;52.112;8.648;2022-12-05T16:36:08;32.42;;;18.05;;
72261;SDS011;60173;52.112;8.648;2022-12-05T16:38:35;31.13;;;18.73;;
72261;SDS011;60173;52.112;8.648;2022-12-05T16:41:05;30.92;;;18.33;;
72261;SDS011;60173;52.112;8.648;2022-12-05T16:48:38;28.70;;;18.00;;
72261;SDS011;60173;52.112;8.648;2022-12-05T16:53:38;32.30;;;18.85;;
72261;SDS011;60173;52.112;8.648;2022-12-05T16:56:21;31.55;;;18.65;;
72261;SDS011;60173;52.112;8.648;2022-12-05T16:58:50;27.08;;;17.50;;
72261;SDS011;60173;52.112;8.648;2022-12-05T17:01:17;46.35;;;23.27;;
72261;SDS011;60173;52.112;8.648;2022-12-05T17:03:45;45.35;;;22.77;;
72261;SDS011;60173;52.112;8.648;2022-12-05T17:06:13;42.45;;;23.88;;
72261;SDS011;60173;52.112;8.648;2022-12-05T17:08:40;40.28;;;24.70;;
72261;SDS011;60173;52.112;8.648;2022-12-05T17:11:09;34.65;;;21.67;;
72261;SDS011;60173;52.112;8.648;2022-12-05T17:13:41;38.38;;;23.38;;
72261;SDS011;60173;52.112;8.648;2022-12-05T17:16:08;39.10;;;21.50;;
72261;SDS011;60173;52.112;8.648;2022-12-05T17:18:34;36.13;;;22.95;;
72261;SDS011;60173;52.112;8.648;2022-12-05T17:21:01;32.45;;;20.38;;
72261;SDS011;60173;52.112;8.648;2022-12-05T17:23:27;36.60;;;21.42;;
72261;SDS011;60173;52.112;8.648;2022-12-05T17:25:55;31.38;;;20.60;;
72261;SDS011;60173;52.112;8.648;2022-12-05T17:28:22;31.88;;;20.13;;
72261;SDS011;60173;52.112;8.648;2022-12-05T17:30:49;29.85;;;18.73;;
72261;SDS011;60173;52.112;8.648;2022-12-05T17:33:17;31.00;;;19.08;;
72261;SDS011;60173;52.112;8.648;2022-12-05T17:35:44;28.80;;;18.52;;
72261;SDS011;60173;52.112;8.648;2022-12-05T17:38:10;29.65;;;18.70;;
72261;SDS011;60173;52.112;8.648;2022-12-05T17:40:37;30.98;;;18.95;;
72261;SDS011;60173;52.112;8.648;2022-12-05T17:43:04;26.88;;;18.05;;
72261;SDS011;60173;52.112;8.648;2022-12-05T17:45:30;27.35;;;18.05;;
72261;SDS011;60173;52.112;8.648;2022-12-05T17:47:57;28.15;;;18.45;;